Glendale, Oregon
Current Conditions -  °F | °C
As of 1:37 PM on Friday 28 Nov 2014 (Local Time) from KSXT Reporting Station
Light Rain Light Rain  
Wind Chill: 37°   Ceiling: 100
Heat Index: 44°   Visibility: 0mi
Dew Point: 44°   Wind: 16mph
Humidity: 100%   Direction: 200°SSW
Pressure: 29.7"   Gusts: 29mph
Location:  42.74°N, 123.42°W
Report Text: KSXT 282137Z AUTO 20014G25KT M1/4SM -RA FG VV001 07/07 A2970 RMK AO2 PK WND 19031/2109 P0007 T00670067
Loading
Personal Weather Stations






























Interactive Weather Map New forecast layout! Learn more

10-Day Weather Forecast

Advertisements
Track Severe Weather on mobile